Time;durP1;ratioP1;P1;durP2;ratioP2;P2;SDS_P1;SDS_P2;PMS_P1;PMS_P2;Temp;Humidity;BMP_temperature;BMP_pressure;BME280_temperature;BME280_humidity;BME280_pressure;Samples;Min_cycle;Max_cycle;Signal;HPM_P1;HPM_P2
2022/06/22 00:01:50;;;;;;;3.42;1.30;;;13.80;99.90;;;;;;5064582;28;20219;-78
2022/06/22 00:04:24;;;;;;;1.58;1.17;;;13.80;99.90;;;;;;5059986;28;20687;-78
2022/06/22 00:07:01;;;;;;;2.78;1.17;;;13.90;99.90;;;;;;5061989;28;20215;-78
2022/06/22 00:09:36;;;;;;;3.42;1.30;;;14.10;99.90;;;;;;5065382;28;20211;-79
2022/06/22 00:12:19;;;;;;;3.78;1.00;;;14.10;99.90;;;;;;5068745;28;20593;-78
2022/06/22 00:14:52;;;;;;;4.55;1.10;;;14.30;99.90;;;;;;5069757;28;20238;-78
2022/06/22 00:17:25;;;;;;;2.88;1.20;;;14.30;99.90;;;;;;5061120;28;20220;-78
2022/06/22 00:20:02;;;;;;;2.22;1.20;;;14.40;99.90;;;;;;5063523;28;20200;-78
2022/06/22 00:22:32;;;;;;;3.00;1.00;;;14.50;99.90;;;;;;5061720;28;20192;-78
2022/06/22 00:25:13;;;;;;;2.95;1.30;;;14.60;99.90;;;;;;5068708;28;20220;-78
2022/06/22 00:27:46;;;;;;;2.90;0.98;;;14.80;99.90;;;;;;5063226;28;20196;-78
2022/06/22 00:30:25;;;;;;;1.80;1.02;;;14.80;99.90;;;;;;5066216;28;20279;-78
2022/06/22 00:33:14;;;;;;;2.85;0.80;;;15.00;99.90;;;;;;5066318;28;20682;-78
2022/06/22 00:35:53;;;;;;;1.58;0.70;;;15.00;99.90;;;;;;5069148;28;20274;-79
2022/06/22 00:38:30;;;;;;;1.38;0.70;;;15.00;99.90;;;;;;5060951;28;20639;-78
2022/06/22 00:41:04;;;;;;;1.58;0.60;;;15.00;99.90;;;;;;5056762;28;20199;-78
2022/06/22 00:43:39;;;;;;;1.90;0.70;;;15.10;99.90;;;;;;5052534;28;20215;-79
2022/06/22 00:46:18;;;;;;;0.85;0.70;;;15.10;99.90;;;;;;5057733;28;20223;-79
2022/06/22 00:48:51;;;;;;;1.17;0.63;;;15.10;99.90;;;;;;5064437;28;20191;-79
2022/06/22 00:51:28;;;;;;;2.97;0.70;;;15.20;99.90;;;;;;5059387;28;20215;-79
2022/06/22 00:54:03;;;;;;;1.75;0.70;;;15.20;99.90;;;;;;5068512;28;20203;-78
2022/06/22 00:56:43;;;;;;;0.65;0.60;;;15.30;99.90;;;;;;5056203;28;20195;-78
2022/06/22 00:59:25;;;;;;;1.63;0.70;;;15.30;99.90;;;;;;5072363;28;20199;-79
2022/06/22 01:02:00;;;;;;;1.35;0.73;;;15.40;99.90;;;;;;5064808;28;20671;-78
2022/06/22 01:04:39;;;;;;;1.77;0.90;;;15.40;99.90;;;;;;5065421;28;20215;-79
2022/06/22 01:07:18;;;;;;;2.38;0.80;;;15.40;99.90;;;;;;5056028;28;20287;-79
2022/06/22 01:09:57;;;;;;;1.80;0.73;;;15.50;99.90;;;;;;5064756;28;20195;-79
2022/06/22 01:12:32;;;;;;;4.53;0.77;;;15.60;99.90;;;;;;5060854;28;20234;-79
2022/06/22 01:15:11;;;;;;;2.55;1.08;;;15.70;99.90;;;;;;5072386;28;20194;-79
2022/06/22 01:17:50;;;;;;;0.77;0.68;;;15.80;99.90;;;;;;5064866;28;20234;-79
2022/06/22 01:20:29;;;;;;;1.70;0.88;;;15.90;99.90;;;;;;5066273;28;20191;-84
2022/06/22 01:23:29;;;;;;;5.50;1.17;;;15.90;99.90;;;;;;5062589;28;20219;-80
2022/06/22 01:26:08;;;;;;;4.20;0.90;;;16.00;99.90;;;;;;5065233;28;20223;-79
2022/06/22 01:28:41;;;;;;;5.60;1.30;;;16.10;99.90;;;;;;5062592;28;20564;-79
2022/06/22 01:31:16;;;;;;;1.30;0.80;;;16.20;99.90;;;;;;5066887;28;20571;-79
2022/06/22 01:33:51;;;;;;;0.98;0.60;;;16.30;99.90;;;;;;5075270;28;20195;-78
2022/06/22 01:36:28;;;;;;;3.45;0.60;;;16.30;99.90;;;;;;5065359;28;20199;-79
2022/06/22 01:38:59;;;;;;;1.98;0.70;;;16.40;99.90;;;;;;5062402;28;20212;-78
2022/06/22 01:41:35;;;;;;;1.67;0.82;;;16.50;99.90;;;;;;5061208;28;20192;-78
2022/06/22 01:44:14;;;;;;;2.05;0.60;;;16.50;99.90;;;;;;5055661;28;20191;-79
2022/06/22 01:47:10;;;;;;;3.70;0.60;;;16.50;99.90;;;;;;5060295;28;20228;-81
2022/06/22 01:49:46;;;;;;;2.70;0.70;;;16.60;99.90;;;;;;5061779;28;20293;-79
2022/06/22 01:52:27;;;;;;;2.15;0.50;;;16.60;99.90;;;;;;5061311;28;20207;-78
2022/06/22 01:55:03;;;;;;;3.17;0.85;;;16.70;99.90;;;;;;5062242;28;20195;-78
2022/06/22 01:57:40;;;;;;;1.45;0.50;;;16.90;99.90;;;;;;5056752;28;20249;-79
2022/06/22 02:00:16;;;;;;;1.88;0.70;;;17.00;99.90;;;;;;5061753;28;20199;-78
2022/06/22 02:02:50;;;;;;;0.88;0.60;;;16.90;99.90;;;;;;5061306;28;20208;-78
2022/06/22 02:05:28;;;;;;;2.10;0.77;;;17.00;99.90;;;;;;5066945;28;20226;-78
2022/06/22 02:08:03;;;;;;;1.85;0.60;;;17.10;99.90;;;;;;5064013;28;20199;-78
2022/06/22 02:10:44;;;;;;;1.15;0.63;;;17.00;99.90;;;;;;5065261;28;20200;-78
2022/06/22 02:13:28;;;;;;;1.50;0.80;;;17.10;99.90;;;;;;5061948;28;20635;-78
2022/06/22 02:16:07;;;;;;;2.10;1.02;;;17.20;99.90;;;;;;5057045;28;20284;-78
2022/06/22 02:18:42;;;;;;;1.17;0.88;;;17.30;99.90;;;;;;5064190;28;20230;-78
2022/06/22 02:21:24;;;;;;;1.05;0.60;;;17.40;99.90;;;;;;5062626;28;20227;-78
2022/06/22 02:24:00;;;;;;;2.72;0.80;;;17.40;99.90;;;;;;5057719;28;20223;-78
2022/06/22 02:26:36;;;;;;;1.20;0.73;;;17.40;99.90;;;;;;5063485;28;20223;-78
2022/06/22 02:29:07;;;;;;;1.52;0.80;;;17.20;99.90;;;;;;5064375;28;20192;-78
2022/06/22 02:31:40;;;;;;;2.80;0.73;;;17.20;99.90;;;;;;5062343;28;20192;-78
2022/06/22 02:34:11;;;;;;;3.50;0.88;;;17.30;99.90;;;;;;5065583;28;20659;-78
2022/06/22 02:36:45;;;;;;;1.02;0.70;;;17.40;99.90;;;;;;5065660;28;20203;-80
2022/06/22 02:39:16;;;;;;;2.03;0.77;;;17.30;99.90;;;;;;5057045;28;20558;-79
2022/06/22 02:44:37;;;;;;;1.00;0.70;;;17.40;99.90;;;;;;5065427;28;20203;-78
2022/06/22 02:47:29;;;;;;;3.63;0.63;;;17.40;99.90;;;;;;5066772;28;20204;-77
2022/06/22 02:50:10;;;;;;;1.13;0.80;;;17.50;99.90;;;;;;5067188;28;20248;-77
2022/06/22 02:52:42;;;;;;;1.15;0.50;;;17.50;99.90;;;;;;5058892;28;20196;-78
2022/06/22 02:55:16;;;;;;;1.27;0.60;;;17.60;99.90;;;;;;5064373;28;20204;-78
2022/06/22 02:57:51;;;;;;;2.47;0.80;;;17.60;99.90;;;;;;5060551;28;20250;-78
2022/06/22 03:00:24;;;;;;;4.05;0.85;;;17.60;99.90;;;;;;5058973;28;20210;-77
2022/06/22 03:03:02;;;;;;;1.30;0.52;;;17.60;99.90;;;;;;5063347;28;20195;-78
2022/06/22 03:05:34;;;;;;;1.35;0.82;;;17.60;99.90;;;;;;5066095;28;20281;-78
2022/06/22 03:08:06;;;;;;;2.35;0.77;;;17.50;99.90;;;;;;5062901;28;20211;-79
2022/06/22 03:10:43;;;;;;;1.77;0.65;;;17.50;99.90;;;;;;5055301;28;20200;-78
2022/06/22 03:13:16;;;;;;;1.13;0.63;;;17.50;99.90;;;;;;5065755;28;20196;-78
2022/06/22 03:15:47;;;;;;;1.75;0.60;;;17.60;99.90;;;;;;5059798;28;20582;-78
2022/06/22 03:18:24;;;;;;;1.02;0.63;;;17.70;99.90;;;;;;5071036;28;20228;-80
2022/06/22 03:20:58;;;;;;;2.33;0.60;;;17.70;99.90;;;;;;5066274;28;20218;-79
2022/06/22 03:23:38;;;;;;;1.00;0.60;;;17.60;99.90;;;;;;5057610;28;20255;-78
2022/06/22 03:26:17;;;;;;;1.75;0.68;;;17.50;99.90;;;;;;5077619;28;20284;-78
2022/06/22 03:28:52;;;;;;;1.85;0.60;;;17.50;99.90;;;;;;5061166;28;20566;-78
2022/06/22 03:31:28;;;;;;;1.25;0.50;;;17.40;99.90;;;;;;5055249;28;20200;-78
2022/06/22 03:34:07;;;;;;;1.08;0.60;;;17.30;99.90;;;;;;5060264;28;20199;-79
2022/06/22 03:36:41;;;;;;;1.13;0.70;;;17.20;99.90;;;;;;5071913;28;20203;-78
2022/06/22 03:39:15;;;;;;;1.42;0.63;;;17.20;99.90;;;;;;5068805;28;20195;-79
2022/06/22 03:41:49;;;;;;;2.30;0.50;;;17.20;99.90;;;;;;5066774;28;20257;-78
2022/06/22 03:44:25;;;;;;;1.70;0.60;;;17.30;99.90;;;;;;5062411;28;20200;-78
2022/06/22 03:47:00;;;;;;;4.05;0.60;;;17.40;99.90;;;;;;5061076;28;20228;-78
2022/06/22 03:49:38;;;;;;;0.85;0.70;;;17.40;99.90;;;;;;5069809;28;20198;-78
2022/06/22 03:52:15;;;;;;;1.45;0.50;;;17.50;99.90;;;;;;5060238;28;20201;-78
2022/06/22 03:54:53;;;;;;;0.88;0.60;;;17.60;99.90;;;;;;5071269;28;20218;-79
2022/06/22 03:57:27;;;;;;;0.40;0.40;;;17.60;99.90;;;;;;5062017;28;20207;-78
2022/06/22 03:59:59;;;;;;;2.33;0.70;;;17.60;99.90;;;;;;5067802;28;20257;-78
2022/06/22 04:02:30;;;;;;;1.20;0.75;;;17.70;99.90;;;;;;5061404;28;20192;-78
2022/06/22 04:05:04;;;;;;;1.30;0.73;;;17.70;99.90;;;;;;5062719;28;20220;-78
2022/06/22 04:07:38;;;;;;;2.03;0.60;;;17.70;99.90;;;;;;5062083;28;20223;-78
2022/06/22 04:10:15;;;;;;;4.75;0.70;;;17.70;99.90;;;;;;5061290;28;20246;-80
2022/06/22 04:12:50;;;;;;;1.63;0.60;;;17.70;99.90;;;;;;5059123;28;20271;-78
2022/06/22 04:15:30;;;;;;;2.50;0.70;;;17.80;99.90;;;;;;5055822;28;20196;-79
2022/06/22 04:18:04;;;;;;;1.00;0.50;;;17.80;99.90;;;;;;5064545;28;20235;-79
2022/06/22 04:20:52;;;;;;;1.73;0.90;;;17.70;99.90;;;;;;5061691;28;20654;-79
2022/06/22 04:23:31;;;;;;;1.90;0.63;;;17.70;99.90;;;;;;5064019;28;20569;-79
2022/06/22 04:26:06;;;;;;;1.40;0.60;;;17.70;99.90;;;;;;5065398;28;20220;-79
2022/06/22 04:28:40;;;;;;;0.77;0.50;;;17.70;99.90;;;;;;5067366;28;20194;-80
2022/06/22 04:31:15;;;;;;;1.10;0.60;;;17.60;99.90;;;;;;5065233;28;20702;-80
2022/06/22 04:33:49;;;;;;;2.63;0.90;;;17.60;99.90;;;;;;5079452;28;20275;-80
2022/06/22 04:36:26;;;;;;;0.95;0.57;;;17.60;99.90;;;;;;5067389;28;20192;-80
2022/06/22 04:39:00;;;;;;;0.88;0.60;;;17.60;99.90;;;;;;5062079;28;20225;-79
2022/06/22 04:41:35;;;;;;;1.38;0.52;;;17.50;99.90;;;;;;5062099;28;20199;-80
2022/06/22 04:44:07;;;;;;;0.47;0.40;;;17.60;99.90;;;;;;5067770;28;20207;-79
2022/06/22 04:46:40;;;;;;;1.10;0.47;;;17.50;99.90;;;;;;5062677;28;20224;-80
2022/06/22 04:49:18;;;;;;;0.88;0.55;;;17.60;99.90;;;;;;5064348;28;20197;-78
2022/06/22 04:51:56;;;;;;;2.22;0.80;;;17.60;99.90;;;;;;5059741;28;20207;-79
2022/06/22 04:54:30;;;;;;;1.65;0.63;;;17.70;99.90;;;;;;5060378;28;20207;-79
2022/06/22 04:57:04;;;;;;;0.73;0.52;;;17.60;99.90;;;;;;5058615;28;20225;-79
2022/06/22 04:59:36;;;;;;;1.63;0.50;;;17.70;99.90;;;;;;5058719;28;20199;-79
2022/06/22 05:02:09;;;;;;;1.27;0.50;;;17.70;99.90;;;;;;5057190;28;20216;-79
2022/06/22 05:04:42;;;;;;;0.40;0.40;;;17.70;99.90;;;;;;5064023;28;20199;-78
2022/06/22 05:07:34;;;;;;;0.82;0.40;;;17.70;99.90;;;;;;5057903;28;20234;-79
2022/06/22 05:10:12;;;;;;;0.98;0.47;;;17.70;99.90;;;;;;5058348;28;20706;-78
2022/06/22 05:12:50;;;;;;;0.80;0.43;;;17.70;99.90;;;;;;5058702;28;20204;-78
2022/06/22 05:15:25;;;;;;;0.90;0.50;;;17.70;99.90;;;;;;5063435;28;20196;-78
2022/06/22 05:17:56;;;;;;;0.40;0.40;;;17.70;99.90;;;;;;5061689;28;20219;-78
2022/06/22 05:20:36;;;;;;;1.73;0.55;;;17.60;99.90;;;;;;5057101;28;20189;-78
2022/06/22 05:23:10;;;;;;;0.52;0.50;;;17.60;99.90;;;;;;5060503;28;20196;-78
2022/06/22 05:25:44;;;;;;;1.75;0.43;;;17.50;99.90;;;;;;5055918;28;22482;-78
2022/06/22 05:28:17;;;;;;;2.72;0.50;;;17.50;99.90;;;;;;5065530;28;20198;-76
2022/06/22 05:31:01;;;;;;;0.82;0.65;;;17.50;99.90;;;;;;5068605;28;20199;-79
2022/06/22 05:33:33;;;;;;;0.65;0.45;;;17.50;99.90;;;;;;5059170;28;20200;-79
2022/06/22 05:36:06;;;;;;;0.68;0.50;;;17.50;99.90;;;;;;5058882;28;20203;-79
2022/06/22 05:38:41;;;;;;;3.28;0.70;;;17.40;99.90;;;;;;5066479;28;20188;-79
2022/06/22 05:41:15;;;;;;;1.10;0.55;;;17.50;99.90;;;;;;5072042;28;20199;-80
2022/06/22 05:43:46;;;;;;;0.60;0.50;;;17.50;99.90;;;;;;5061331;28;20220;-80
2022/06/22 05:46:18;;;;;;;1.20;0.50;;;17.50;99.90;;;;;;5064875;28;20220;-80
2022/06/22 05:48:51;;;;;;;1.30;0.60;;;17.40;99.90;;;;;;5068241;28;20223;-79
2022/06/22 05:51:30;;;;;;;1.00;0.47;;;17.40;99.90;;;;;;5065915;28;20211;-79
2022/06/22 05:54:07;;;;;;;1.13;0.80;;;17.40;99.90;;;;;;5067393;28;20203;-80
2022/06/22 05:56:42;;;;;;;1.00;0.50;;;17.40;99.90;;;;;;5061309;28;20191;-80
2022/06/22 05:59:21;;;;;;;1.02;0.47;;;17.40;99.90;;;;;;5062455;28;20203;-77
2022/06/22 06:01:58;;;;;;;0.80;0.60;;;17.40;99.90;;;;;;5062182;28;20247;-77
2022/06/22 06:04:36;;;;;;;0.95;0.40;;;17.40;99.90;;;;;;5069229;28;20203;-77
2022/06/22 06:07:14;;;;;;;1.67;0.60;;;17.40;99.90;;;;;;5059994;28;20239;-80
2022/06/22 06:09:46;;;;;;;1.63;0.70;;;17.40;99.90;;;;;;5060986;28;20199;-80
2022/06/22 06:12:21;;;;;;;0.60;0.50;;;17.40;99.90;;;;;;5066268;28;20702;-80
2022/06/22 06:14:55;;;;;;;1.67;0.50;;;17.30;99.90;;;;;;5066868;28;20198;-79
2022/06/22 06:17:30;;;;;;;1.77;0.80;;;17.30;99.90;;;;;;5064109;28;20231;-79
2022/06/22 06:20:02;;;;;;;1.23;1.13;;;17.30;99.90;;;;;;5062847;28;20607;-79
2022/06/22 06:22:36;;;;;;;1.38;1.05;;;17.20;99.90;;;;;;5056492;28;20218;-79
2022/06/22 06:28:04;;;;;;;1.05;0.90;;;17.20;99.90;;;;;;5067756;28;20334;-82
2022/06/22 06:30:43;;;;;;;1.02;0.70;;;17.10;99.90;;;;;;5059409;28;20195;-78
2022/06/22 06:33:21;;;;;;;2.63;0.80;;;17.10;99.90;;;;;;5056452;28;20669;-79
2022/06/22 06:35:57;;;;;;;1.95;0.57;;;17.10;99.90;;;;;;5063042;28;20607;-80
2022/06/22 06:38:34;;;;;;;1.67;0.60;;;17.00;99.90;;;;;;5065650;28;20628;-79
2022/06/22 06:41:13;;;;;;;0.82;0.60;;;17.00;99.90;;;;;;5059014;28;20227;-79
2022/06/22 06:43:50;;;;;;;1.08;0.60;;;16.90;99.90;;;;;;5044610;28;20207;-79
2022/06/22 06:46:25;;;;;;;1.15;0.77;;;16.80;99.90;;;;;;5046314;28;20273;-79
2022/06/22 06:49:02;;;;;;;1.52;0.70;;;16.80;99.90;;;;;;5043900;28;20651;-79
2022/06/22 06:51:36;;;;;;;1.23;0.77;;;16.70;99.90;;;;;;5046345;28;20199;-79
2022/06/22 06:54:14;;;;;;;1.52;0.93;;;16.60;99.90;;;;;;5043518;28;20209;-80
2022/06/22 06:56:52;;;;;;;1.92;0.93;;;16.60;99.90;;;;;;5042011;28;20211;-80
2022/06/22 06:59:27;;;;;;;2.13;1.17;;;16.60;99.90;;;;;;5046235;28;20200;-79
2022/06/22 07:02:02;;;;;;;2.08;1.30;;;16.50;99.90;;;;;;5042448;28;20223;-80
2022/06/22 07:04:35;;;;;;;1.55;1.10;;;16.40;99.90;;;;;;5043232;28;20313;-79
2022/06/22 07:07:19;;;;;;;3.35;1.23;;;16.40;99.90;;;;;;5046039;28;20219;-79
2022/06/22 07:09:52;;;;;;;2.50;1.65;;;16.40;99.90;;;;;;5047954;28;20211;-79
2022/06/22 07:12:30;;;;;;;2.08;1.50;;;16.30;99.90;;;;;;5050264;28;20204;-79
2022/06/22 07:15:03;;;;;;;5.03;1.70;;;16.30;99.90;;;;;;5053391;28;20667;-79
2022/06/22 07:17:35;;;;;;;4.15;1.50;;;16.20;99.90;;;;;;5049559;28;20231;-79
2022/06/22 07:20:16;;;;;;;1.48;1.20;;;16.20;99.90;;;;;;5046398;28;20204;-80
2022/06/22 07:22:51;;;;;;;3.63;1.80;;;16.10;99.90;;;;;;5046062;28;20740;-79
2022/06/22 07:25:27;;;;;;;3.13;1.70;;;16.10;99.90;;;;;;5047276;28;20290;-80
2022/06/22 07:28:07;;;;;;;4.22;1.88;;;16.10;99.90;;;;;;5047494;28;20219;-80
2022/06/22 07:30:40;;;;;;;5.38;1.80;;;16.00;99.90;;;;;;5040067;28;20826;-79
2022/06/22 07:33:17;;;;;;;2.75;1.83;;;15.90;99.90;;;;;;5045862;28;20202;-79
2022/06/22 07:35:52;;;;;;;3.15;1.42;;;15.90;99.90;;;;;;5044879;28;20284;-79
2022/06/22 07:38:29;;;;;;;1.98;1.40;;;15.90;99.90;;;;;;5053551;28;20206;-79
2022/06/22 07:43:51;;;;;;;2.95;1.35;;;15.80;99.90;;;;;;5047526;28;20207;-78
2022/06/22 07:46:29;;;;;;;3.15;1.50;;;15.80;99.90;;;;;;5048126;28;20238;-79
2022/06/22 07:49:07;;;;;;;3.22;1.00;;;15.80;99.90;;;;;;5045936;28;20258;-79
2022/06/22 07:51:42;;;;;;;4.22;1.50;;;15.70;99.90;;;;;;5045918;28;20192;-80
2022/06/22 07:54:17;;;;;;;4.32;2.47;;;15.70;99.90;;;;;;5043995;28;21157;-81
2022/06/22 07:57:02;;;;;;;6.68;4.00;;;15.60;99.90;;;;;;5040613;28;20681;-80
2022/06/22 07:59:40;;;;;;;8.95;6.00;;;15.60;99.90;;;;;;5046599;28;20223;-80
2022/06/22 08:02:17;;;;;;;5.10;2.97;;;15.60;99.90;;;;;;5040799;28;20690;-80
2022/06/22 08:04:54;;;;;;;5.10;2.10;;;15.60;99.90;;;;;;5045095;28;20252;-80
2022/06/22 08:07:26;;;;;;;3.95;1.58;;;15.60;99.90;;;;;;5050524;28;20235;-79
2022/06/22 08:10:04;;;;;;;4.03;1.65;;;15.50;99.90;;;;;;5037358;28;20248;-80
2022/06/22 08:12:44;;;;;;;4.32;1.60;;;15.50;99.90;;;;;;5046453;28;20227;-81
2022/06/22 08:15:21;;;;;;;2.90;1.80;;;15.50;99.90;;;;;;5040876;28;20285;-81
2022/06/22 08:17:53;;;;;;;3.97;2.45;;;15.50;99.90;;;;;;5042409;28;20231;-80
2022/06/22 08:20:27;;;;;;;6.95;3.53;;;15.40;99.90;;;;;;5039810;28;20287;-80
2022/06/22 08:22:59;;;;;;;8.20;4.28;;;15.40;99.90;;;;;;5041283;28;20215;-80
2022/06/22 08:25:30;;;;;;;7.65;5.20;;;15.30;99.90;;;;;;5042847;28;20196;-81
2022/06/22 08:28:01;;;;;;;8.07;5.35;;;15.20;99.90;;;;;;5046546;28;20220;-81
2022/06/22 08:30:35;;;;;;;5.28;4.03;;;15.10;99.90;;;;;;5044822;28;20200;-81
2022/06/22 08:33:09;;;;;;;10.45;5.88;;;15.10;99.90;;;;;;5042371;28;20293;-81
2022/06/22 08:35:42;;;;;;;6.75;4.88;;;15.10;99.90;;;;;;5046747;28;20709;-82
2022/06/22 08:38:20;;;;;;;5.32;3.33;;;15.00;99.90;;;;;;5044726;28;20214;-81
2022/06/22 08:41:00;;;;;;;2.80;2.40;;;15.00;99.90;;;;;;5044758;28;20192;-81
2022/06/22 08:43:37;;;;;;;4.10;2.53;;;15.00;99.90;;;;;;5048526;28;20196;-81
2022/06/22 08:46:53;;;;;;;6.57;2.88;;;15.00;99.90;;;;;;5043599;28;20195;-81
2022/06/22 08:49:48;;;;;;;7.13;4.28;;;15.00;99.90;;;;;;5044205;28;20200;-81
2022/06/22 08:52:37;;;;;;;4.30;3.08;;;15.00;99.90;;;;;;5042511;28;20216;-81
2022/06/22 08:55:30;;;;;;;3.90;2.80;;;15.00;99.90;;;;;;5043818;28;20213;-80
2022/06/22 08:58:14;;;;;;;5.38;2.70;;;15.00;99.90;;;;;;5044349;28;20204;-81
2022/06/22 09:00:55;;;;;;;3.70;2.80;;;15.00;99.90;;;;;;5045010;28;20219;-82
2022/06/22 09:03:59;;;;;;;4.63;2.80;;;15.00;99.90;;;;;;5041013;28;21287;-80
2022/06/22 09:06:42;;;;;;;5.93;2.63;;;15.00;99.90;;;;;;5039505;28;20203;-78
2022/06/22 09:09:37;;;;;;;4.45;2.60;;;15.00;99.90;;;;;;5038567;28;20222;-80
2022/06/22 09:12:25;;;;;;;3.92;2.40;;;15.00;99.90;;;;;;5039716;28;20228;-79
2022/06/22 09:15:30;;;;;;;3.15;1.90;;;14.90;99.90;;;;;;5036761;28;20729;-78
2022/06/22 09:18:25;;;;;;;3.15;2.00;;;14.90;99.90;;;;;;5038209;28;20661;-80
2022/06/22 09:21:13;;;;;;;7.57;3.90;;;14.90;99.90;;;;;;5040524;28;20588;-78
2022/06/22 09:23:52;;;;;;;8.48;3.92;;;14.90;99.90;;;;;;5042004;28;20434;-77
2022/06/22 09:26:36;;;;;;;7.68;3.72;;;14.80;99.90;;;;;;5043298;28;20204;-78
2022/06/22 09:29:23;;;;;;;5.90;3.00;;;14.80;99.90;;;;;;5043440;28;20204;-78
2022/06/22 09:32:32;;;;;;;3.25;2.42;;;14.80;99.90;;;;;;5043782;28;20203;-78
2022/06/22 09:35:33;;;;;;;5.43;2.80;;;14.70;99.90;;;;;;5044042;28;20673;-78
2022/06/22 09:38:22;;;;;;;3.13;2.40;;;14.70;99.90;;;;;;5043032;28;20200;-78
2022/06/22 09:41:03;;;;;;;4.97;2.40;;;14.70;99.90;;;;;;5044221;28;20243;-79
2022/06/22 09:44:07;;;;;;;5.72;2.65;;;14.60;99.90;;;;;;5041968;28;20230;-79
2022/06/22 09:46:58;;;;;;;6.78;3.85;;;14.70;99.90;;;;;;5038321;28;20226;-80
2022/06/22 09:49:48;;;;;;;7.20;3.70;;;14.60;99.90;;;;;;5040371;28;20273;-79
2022/06/22 09:52:38;;;;;;;5.90;3.60;;;14.60;99.90;;;;;;5042797;28;20216;-80
2022/06/22 09:58:47;;;;;;;6.07;4.60;;;14.60;99.90;;;;;;5043273;28;20269;-78
2022/06/22 10:01:27;;;;;;;6.25;4.25;;;14.60;99.90;;;;;;5041567;28;20199;-78
2022/06/22 10:04:17;;;;;;;5.43;3.60;;;14.60;99.90;;;;;;5041939;28;20200;-79
2022/06/22 10:07:00;;;;;;;5.13;3.38;;;14.50;99.90;;;;;;5048458;28;20216;-80
2022/06/22 10:09:47;;;;;;;30.15;27.05;;;14.40;99.90;;;;;;5041257;28;20207;-80
2022/06/22 10:12:37;;;;;;;12.10;10.80;;;14.30;99.90;;;;;;5043352;28;20610;-80
2022/06/22 10:15:30;;;;;;;8.82;5.90;;;14.30;99.90;;;;;;5039780;28;20348;-79
2022/06/22 10:18:30;;;;;;;9.45;5.47;;;14.20;99.90;;;;;;5034222;28;20282;-80
2022/06/22 10:21:13;;;;;;;7.95;5.72;;;14.20;99.90;;;;;;5042136;28;20771;-79
2022/06/22 10:24:11;;;;;;;8.38;4.78;;;14.20;99.90;;;;;;5037188;28;20227;-78
2022/06/22 10:26:56;;;;;;;4.65;3.25;;;14.10;99.90;;;;;;5044450;28;20201;-78
2022/06/22 10:29:47;;;;;;;5.63;3.03;;;14.20;99.90;;;;;;5044302;28;20210;-78
2022/06/22 10:32:53;;;;;;;5.57;3.55;;;14.20;99.90;;;;;;5036266;28;20603;-78
2022/06/22 10:35:49;;;;;;;7.47;3.50;;;14.10;99.90;;;;;;5046319;28;20207;-80
2022/06/22 10:38:40;;;;;;;8.10;3.50;;;14.10;99.90;;;;;;5042701;28;20586;-79
2022/06/22 10:48:02;;;;;;;5.35;3.70;;;14.00;99.90;;;;;;5021383;28;20817;-80
2022/06/22 10:50:43;;;;;;;6.38;3.78;;;14.00;99.90;;;;;;5011351;28;20196;-79
2022/06/22 10:53:55;;;;;;;6.82;3.70;;;14.00;99.90;;;;;;5044255;28;20203;-79
2022/06/22 10:56:48;;;;;;;6.45;4.00;;;13.90;99.90;;;;;;5046860;28;20196;-79
2022/06/22 10:59:38;;;;;;;5.13;3.60;;;13.90;99.90;;;;;;5050495;28;20208;-78
2022/06/22 11:02:38;;;;;;;7.88;3.70;;;13.90;99.90;;;;;;5043954;28;20196;-79
2022/06/22 11:05:35;;;;;;;7.00;4.18;;;13.90;99.90;;;;;;5047158;28;20210;-79
2022/06/22 11:08:41;;;;;;;7.50;4.57;;;13.80;99.90;;;;;;5050853;28;20239;-79
2022/06/22 11:11:24;;;;;;;6.97;4.20;;;13.80;99.90;;;;;;5048208;28;20220;-79
2022/06/22 11:14:20;;;;;;;6.43;4.10;;;13.80;99.90;;;;;;5045042;28;20662;-78
2022/06/22 11:17:09;;;;;;;7.82;4.00;;;13.80;99.90;;;;;;5043847;28;21449;-79
2022/06/22 11:20:09;;;;;;;7.97;4.03;;;13.70;99.90;;;;;;5043807;28;20204;-80
2022/06/22 11:22:45;;;;;;;6.95;4.00;;;13.70;99.90;;;;;;5035118;28;20200;-78
2022/06/22 11:31:55;;;;;;;6.65;4.57;;;13.80;99.90;;;;;;5037016;28;20203;-80
2022/06/22 11:34:51;;;;;;;7.45;4.15;;;13.80;99.90;;;;;;5046376;28;20253;-80
2022/06/22 11:37:33;;;;;;;5.78;4.00;;;13.80;99.90;;;;;;5037493;28;20672;-80
2022/06/22 11:40:32;;;;;;;8.90;4.60;;;13.80;99.90;;;;;;5042928;28;22102;-80
2022/06/22 11:43:13;;;;;;;9.48;4.78;;;13.80;99.90;;;;;;5046818;28;20203;-80
2022/06/22 11:45:56;;;;;;;8.45;5.15;;;13.80;99.90;;;;;;5045132;28;20220;-78
2022/06/22 11:48:56;;;;;;;9.80;5.60;;;13.80;99.90;;;;;;5049325;28;20593;-79
2022/06/22 11:52:06;;;;;;;6.55;5.32;;;13.80;99.90;;;;;;5045334;28;20242;-78
2022/06/22 11:55:28;;;;;;;9.10;5.50;;;13.70;99.90;;;;;;5043563;28;20208;-79
2022/06/22 11:58:28;;;;;;;9.07;5.50;;;13.70;99.90;;;;;;5000396;28;20217;-79
2022/06/22 12:01:17;;;;;;;6.97;5.10;;;13.60;99.90;;;;;;4995282;28;20194;-79
2022/06/22 12:04:17;;;;;;;8.60;4.88;;;13.50;99.90;;;;;;5046966;28;20215;-79
2022/06/22 12:07:09;;;;;;;7.55;4.97;;;13.50;99.90;;;;;;5049464;28;20211;-78
2022/06/22 12:09:56;;;;;;;10.27;5.72;;;13.50;99.90;;;;;;5044063;28;22179;-79
2022/06/22 12:12:48;;;;;;;7.85;5.47;;;13.60;99.90;;;;;;5046407;28;20667;-79
2022/06/22 12:15:50;;;;;;;8.52;4.93;;;13.60;99.90;;;;;;5044078;28;20831;-78
2022/06/22 12:18:39;;;;;;;9.50;5.30;;;13.60;99.90;;;;;;5031946;28;20232;-78
2022/06/22 12:21:45;;;;;;;10.55;5.55;;;13.50;99.90;;;;;;5048485;28;20703;-78
2022/06/22 12:24:28;;;;;;;8.15;4.95;;;13.50;99.90;;;;;;5047325;28;20614;-79
2022/06/22 12:27:12;;;;;;;6.90;4.53;;;13.60;99.90;;;;;;5042535;28;20220;-79
2022/06/22 12:30:08;;;;;;;8.70;4.35;;;13.60;99.90;;;;;;5048197;28;20232;-80
2022/06/22 12:32:43;;;;;;;6.63;4.47;;;13.50;99.90;;;;;;5028035;28;20228;-80
2022/06/22 12:35:23;;;;;;;7.63;4.18;;;13.60;99.90;;;;;;5045267;28;20207;-80
2022/06/22 12:38:00;;;;;;;8.02;4.45;;;13.60;99.90;;;;;;5050137;28;20222;-79
2022/06/22 12:40:40;;;;;;;7.07;4.03;;;13.50;99.90;;;;;;5043984;28;20946;-78
2022/06/22 12:43:49;;;;;;;5.45;3.78;;;13.50;99.90;;;;;;5045468;28;20713;-82
2022/06/22 12:46:31;;;;;;;7.35;3.67;;;13.50;99.90;;;;;;5035894;28;20819;-81
2022/06/22 12:49:24;;;;;;;5.90;4.03;;;13.40;99.90;;;;;;5044009;28;20279;-84
2022/06/22 12:52:01;;;;;;;6.22;3.80;;;13.40;99.90;;;;;;5040879;28;20638;-80
2022/06/22 12:54:34;;;;;;;6.78;3.55;;;13.40;99.90;;;;;;5044197;28;20214;-79
2022/06/22 12:57:08;;;;;;;6.85;3.47;;;13.30;99.90;;;;;;5041988;28;20305;-79
2022/06/22 12:59:41;;;;;;;4.00;3.13;;;13.30;99.90;;;;;;5046000;28;20341;-79
2022/06/22 13:02:17;;;;;;;5.60;3.70;;;13.30;99.90;;;;;;5042293;28;20208;-80
2022/06/22 13:04:52;;;;;;;6.47;3.97;;;13.30;99.90;;;;;;5040431;28;20209;-79
2022/06/22 13:07:24;;;;;;;4.43;3.30;;;13.30;99.90;;;;;;5047157;28;20786;-80
2022/06/22 13:09:55;;;;;;;7.28;3.47;;;13.20;99.90;;;;;;5045247;28;21013;-80
2022/06/22 13:12:32;;;;;;;4.30;3.08;;;13.20;99.90;;;;;;5047105;28;20322;-81
2022/06/22 13:15:06;;;;;;;6.55;2.90;;;13.20;99.90;;;;;;5050829;28;20192;-80
2022/06/22 13:17:47;;;;;;;4.57;3.10;;;13.20;99.90;;;;;;5042633;28;20243;-77
2022/06/22 13:20:41;;;;;;;4.18;2.67;;;13.10;99.90;;;;;;5045804;28;20207;-77
2022/06/22 13:23:21;;;;;;;4.72;2.78;;;13.20;99.90;;;;;;5044356;28;20202;-77
2022/06/22 13:25:59;;;;;;;5.20;2.58;;;13.20;99.90;;;;;;5043616;28;20195;-78
2022/06/22 13:28:38;;;;;;;4.57;2.97;;;13.20;99.90;;;;;;5042985;28;20243;-79
2022/06/22 13:31:17;;;;;;;4.88;2.60;;;13.20;99.90;;;;;;5048546;28;20196;-79
2022/06/22 13:33:53;;;;;;;4.72;2.90;;;13.10;99.90;;;;;;5043281;28;20204;-78
2022/06/22 13:36:37;;;;;;;3.95;2.60;;;13.10;99.90;;;;;;5047009;28;20188;-77
2022/06/22 13:39:21;;;;;;;4.43;2.92;;;13.10;99.90;;;;;;5043378;28;20796;-77
2022/06/22 13:42:13;;;;;;;4.47;2.53;;;13.10;99.90;;;;;;5043350;28;22095;-79
2022/06/22 13:45:10;;;;;;;5.03;2.72;;;13.10;99.90;;;;;;5045499;28;20235;-77
2022/06/22 13:48:06;;;;;;;2.97;2.33;;;13.10;99.90;;;;;;5030181;28;20200;-77
2022/06/22 13:51:08;;;;;;;6.68;2.88;;;13.00;99.90;;;;;;5045544;28;20204;-77
2022/06/22 13:54:12;;;;;;;4.00;2.70;;;13.00;99.90;;;;;;5046479;28;20195;-77
2022/06/22 13:56:56;;;;;;;5.00;3.00;;;12.90;99.90;;;;;;5033732;28;20199;-78
2022/06/22 13:59:32;;;;;;;4.82;2.88;;;12.90;99.90;;;;;;5048935;28;20277;-78
2022/06/22 14:02:17;;;;;;;4.65;2.90;;;12.90;99.90;;;;;;5045637;28;20639;-77
2022/06/22 14:04:53;;;;;;;4.28;2.92;;;12.90;99.90;;;;;;5047141;28;20211;-77
2022/06/22 14:07:30;;;;;;;4.03;2.97;;;12.90;99.90;;;;;;5045267;28;20620;-77
2022/06/22 14:10:09;;;;;;;5.07;3.08;;;12.90;99.90;;;;;;5046650;28;20232;-81
2022/06/22 14:12:47;;;;;;;7.55;3.45;;;12.90;99.90;;;;;;5044722;28;20200;-81
2022/06/22 14:15:28;;;;;;;6.63;3.30;;;13.00;99.90;;;;;;5044867;28;20228;-80
2022/06/22 14:18:05;;;;;;;5.78;3.20;;;13.00;99.90;;;;;;5042459;28;20239;-80
2022/06/22 14:20:43;;;;;;;6.40;3.03;;;13.00;99.90;;;;;;5045347;28;20199;-80